createdAt,value
2019-05-03T00:03:45.387Z,100724.44
2019-05-03T00:09:29.356Z,100727.97
2019-05-03T00:44:15.277Z,100725.80
2019-05-03T00:49:46.242Z,100726.88
2019-05-03T01:13:48.944Z,100730.36
2019-05-03T01:31:57.703Z,100736.16
2019-05-03T04:46:01.792Z,100885.77
2019-05-03T04:51:19.875Z,100880.17
2019-05-03T05:07:18.217Z,100900.11
2019-05-03T05:12:47.422Z,100899.45
2019-05-03T05:34:11.909Z,100922.36
2019-05-03T05:39:37.361Z,100930.34
2019-05-03T05:45:05.881Z,100927.42
2019-05-03T05:50:29.839Z,100931.33
2019-05-03T05:55:50.884Z,100938.54
2019-05-03T06:01:11.974Z,100934.23
2019-05-03T06:06:36.555Z,100945.12
2019-05-03T06:12:06.250Z,100940.52
2019-05-03T06:17:34.707Z,100933.95
2019-05-03T06:23:01.563Z,100941.86
2019-05-03T06:28:29.151Z,100942.70
2019-05-03T06:33:45.890Z,100947.58
2019-05-03T06:39:01.382Z,100954.91
2019-05-03T06:44:30.007Z,100951.84
2019-05-03T06:49:50.358Z,100952.61
2019-05-03T06:55:14.319Z,100959.27
2019-05-03T07:00:26.988Z,100962.76
2019-05-03T07:05:30.997Z,100958.05
2019-05-03T07:10:55.420Z,100961.56
2019-05-03T07:16:10.899Z,100961.49
2019-05-03T07:21:18.059Z,100958.58
2019-05-03T07:26:27.274Z,100946.27
2019-05-03T07:31:27.386Z,100943.53
2019-05-03T07:36:39.501Z,100946.06
2019-05-03T07:41:37.556Z,100941.69
2019-05-03T07:46:51.671Z,100940.66
2019-05-03T07:51:59.270Z,100945.64
2019-05-03T07:57:08.604Z,100943.88
2019-05-03T08:02:17.540Z,100954.77
2019-05-03T08:07:28.634Z,100952.47
2019-05-03T08:12:41.593Z,100950.64
2019-05-03T08:17:49.015Z,100947.20
2019-05-03T08:22:56.789Z,100942.22
2019-05-03T08:27:50.085Z,100944.30
2019-05-03T08:32:58.691Z,100945.52
2019-05-03T08:37:59.599Z,100947.22
2019-05-03T08:43:10.878Z,100940.11
2019-05-03T08:48:17.242Z,100924.76
2019-05-03T08:53:27.474Z,100931.84
2019-05-03T08:58:28.358Z,100937.47
2019-05-03T09:03:40.057Z,100940.88
2019-05-03T09:08:48.629Z,100942.50
2019-05-03T09:14:05.533Z,100945.36
2019-05-03T09:19:22.395Z,100934.36
2019-05-03T09:24:38.158Z,100929.86
2019-05-03T09:30:56.574Z,100938.48
2019-05-03T09:37:19.621Z,100932.83
2019-05-03T09:42:17.370Z,100921.65
2019-05-03T09:48:47.138Z,100913.74
2019-05-03T09:53:49.033Z,100913.92
2019-05-03T09:58:57.310Z,100915.61
2019-05-03T10:05:57.810Z,100899.06
2019-05-03T10:10:58.705Z,100902.15
2019-05-03T10:16:06.856Z,100901.98
2019-05-03T10:21:59.162Z,100908.45
2019-05-03T10:27:06.865Z,100910.48
2019-05-03T10:32:26.266Z,100910.80
2019-05-03T10:37:45.799Z,100907.87
2019-05-03T10:42:55.690Z,100916.20
2019-05-03T10:48:06.682Z,100918.87
2019-05-03T10:53:17.190Z,100903.56
2019-05-03T10:58:27.602Z,100898.61
2019-05-03T11:03:36.361Z,100898.44
2019-05-03T11:08:44.701Z,100899.67
2019-05-03T11:13:51.844Z,100904.47
2019-05-03T11:19:01.800Z,100899.80
2019-05-03T11:24:11.442Z,100892.86
2019-05-03T11:29:02.364Z,100897.93
2019-05-03T11:34:10.955Z,100877.27
2019-05-03T11:39:18.158Z,100880.59
2019-05-03T11:44:26.429Z,100879.54
2019-05-03T11:49:30.826Z,100870.20
2019-05-03T11:54:20.620Z,100872.48
2019-05-03T11:59:28.423Z,100864.48
2019-05-03T12:04:18.760Z,100873.36
2019-05-03T12:09:11.102Z,100866.69
2019-05-03T12:14:17.296Z,100863.35
2019-05-03T12:19:31.320Z,100863.42
2019-05-03T12:24:29.644Z,100853.87
2019-05-03T12:29:24.462Z,100857.47
2019-05-03T12:34:30.807Z,100846.50
2019-05-03T12:39:35.395Z,100835.91
2019-05-03T12:44:36.782Z,100836.95
2019-05-03T12:49:38.102Z,100832.14
2019-05-03T12:54:28.392Z,100834.61
2019-05-03T12:59:29.212Z,100831.13
2019-05-03T13:04:31.062Z,100831.93
2019-05-03T13:09:32.713Z,100817.03
2019-05-03T13:14:40.857Z,100821.75
2019-05-03T13:19:31.078Z,100812.55
2019-05-03T13:24:46.799Z,100813.00
2019-05-03T13:29:40.354Z,100817.21
2019-05-03T13:34:45.176Z,100807.10
2019-05-03T13:39:38.822Z,100803.83
2019-05-03T13:44:36.445Z,100803.75
2019-05-03T13:49:40.839Z,100796.45
2019-05-03T13:55:26.350Z,100791.50
2019-05-03T14:00:28.538Z,100788.45
2019-05-03T14:05:38.530Z,100787.68
2019-05-03T14:10:39.530Z,100787.94
2019-05-03T14:16:08.027Z,100785.46
2019-05-03T14:21:15.496Z,100787.00
2019-05-03T14:26:16.874Z,100780.55
2019-05-03T14:31:09.828Z,100782.87
2019-05-03T14:36:06.895Z,100778.97
2019-05-03T14:41:00.823Z,100779.05
2019-05-03T14:48:12.613Z,100786.20
2019-05-03T14:53:27.359Z,100788.39
2019-05-03T14:58:37.112Z,100787.55
2019-05-03T15:04:12.628Z,100790.48
2019-05-03T15:09:21.012Z,100786.28
2019-05-03T15:14:48.529Z,100779.30
2019-05-03T15:19:57.087Z,100776.19
2019-05-03T15:25:41.116Z,100781.15
2019-05-03T15:31:09.097Z,100778.25
2019-05-03T15:36:17.294Z,100774.55
2019-05-03T15:41:10.080Z,100772.01
2019-05-03T15:46:14.687Z,100766.90
2019-05-03T15:51:26.309Z,100776.23
2019-05-03T15:56:19.413Z,100770.30
2019-05-03T16:01:22.273Z,100767.14
2019-05-03T16:06:17.306Z,100767.65
2019-05-03T16:11:36.703Z,100760.52
2019-05-03T16:16:28.264Z,100760.28
2019-05-03T16:21:25.031Z,100755.45
2019-05-03T16:26:37.290Z,100748.44
2019-05-03T16:31:37.710Z,100744.72
2019-05-03T16:36:37.857Z,100745.70
2019-05-03T16:41:31.219Z,100743.84
2019-05-03T16:46:37.181Z,100749.19
2019-05-03T16:51:48.065Z,100749.02
2019-05-03T16:56:40.512Z,100746.95
2019-05-03T17:01:46.329Z,100750.05
2019-05-03T17:06:50.675Z,100741.10
2019-05-03T17:11:57.837Z,100748.34
2019-05-03T17:16:55.403Z,100739.55
2019-05-03T17:22:08.336Z,100736.33
2019-05-03T17:27:03.094Z,100736.19
2019-05-03T17:32:11.950Z,100743.38
2019-05-03T17:37:58.736Z,100741.13
2019-05-03T17:43:27.716Z,100735.38
2019-05-03T17:48:21.892Z,100733.52
2019-05-03T17:53:27.680Z,100726.23
2019-05-03T17:59:16.871Z,100724.25
2019-05-03T18:04:19.266Z,100727.89
2019-05-03T18:09:40.479Z,100734.03
2019-05-03T18:14:52.263Z,100732.98
2019-05-03T18:19:49.274Z,100727.09
2019-05-03T18:24:56.308Z,100727.20
2019-05-03T18:30:17.042Z,100720.97
2019-05-03T18:35:28.017Z,100723.25
2019-05-03T18:40:36.216Z,100726.41
2019-05-03T18:45:45.041Z,100726.61
2019-05-03T18:51:19.631Z,100725.75
2019-05-03T18:56:22.436Z,100721.97
2019-05-03T19:01:30.150Z,100724.89
2019-05-03T19:06:37.800Z,100734.85
2019-05-03T19:11:55.296Z,100732.64
2019-05-03T19:17:02.559Z,100730.90
2019-05-03T19:22:17.317Z,100729.70
2019-05-03T19:27:36.363Z,100720.64
2019-05-03T19:32:50.723Z,100721.96
2019-05-03T19:38:06.644Z,100724.96
2019-05-03T19:48:42.045Z,100724.39
2019-05-03T19:54:05.846Z,100720.61
2019-05-03T19:59:28.953Z,100722.89
2019-05-03T20:05:01.597Z,100725.49
2019-05-03T20:22:49.564Z,100712.41
2019-05-03T20:30:01.561Z,100711.98
2019-05-03T20:38:26.407Z,100703.50
2019-05-03T20:44:29.996Z,100703.75
2019-05-03T20:50:19.001Z,100707.10
2019-05-03T20:56:26.978Z,100705.05
2019-05-03T21:24:55.285Z,100691.81
2019-05-03T22:13:08.968Z,100665.62
2019-05-03T22:32:56.149Z,100650.64
2019-05-03T22:42:47.330Z,100639.78
2019-05-03T22:48:48.443Z,100638.03
2019-05-03T22:57:43.223Z,100627.34
2019-05-03T23:12:21.518Z,100608.72
2019-05-03T23:25:52.444Z,100610.16
